createdAt,value
2023-09-19T00:00:52.870Z,99920.66
2023-09-19T00:03:26.258Z,99921.53
2023-09-19T00:06:01.957Z,99911.97
2023-09-19T00:08:32.529Z,99930.75
2023-09-19T00:11:06.908Z,99926.97
2023-09-19T00:14:05.089Z,99930.06
2023-09-19T00:16:34.333Z,99933.28
2023-09-19T00:19:09.577Z,99924.38
2023-09-19T00:21:42.369Z,99923.50
2023-09-19T00:24:18.935Z,99920.88
2023-09-19T00:26:50.396Z,99918.13
2023-09-19T00:29:24.910Z,99911.41
2023-09-19T00:31:55.942Z,99913.84
2023-09-19T00:34:26.971Z,99933.59
2023-09-19T00:36:57.675Z,99923.56
2023-09-19T00:39:32.717Z,99922.88
2023-09-19T00:42:06.520Z,99910.63
2023-09-19T00:44:46.982Z,99922.06
2023-09-19T00:47:19.131Z,99923.56
2023-09-19T00:49:51.443Z,99931.19
2023-09-19T00:52:25.010Z,99939.72
2023-09-19T00:54:58.086Z,99946.31
2023-09-19T00:57:29.262Z,99941.91
2023-09-19T01:00:09.770Z,99952.00
2023-09-19T01:02:40.622Z,99967.25
2023-09-19T01:05:13.934Z,99972.94
2023-09-19T01:07:46.001Z,99976.31
2023-09-19T01:10:21.778Z,99979.63
2023-09-19T01:13:17.685Z,99978.72
2023-09-19T01:16:05.567Z,99970.34
2023-09-19T01:18:44.604Z,99983.13
2023-09-19T01:21:22.936Z,99975.41
2023-09-19T01:24:24.066Z,99981.56
2023-09-19T01:27:24.712Z,99985.66
2023-09-19T01:29:56.255Z,99984.78
2023-09-19T01:32:40.121Z,99990.06
2023-09-19T01:35:14.526Z,99991.56
2023-09-19T01:37:45.467Z,99990.59
2023-09-19T01:40:19.251Z,99998.03
2023-09-19T01:42:59.069Z,100004.69
2023-09-19T01:45:38.095Z,100016.78
2023-09-19T01:48:23.702Z,100012.66
2023-09-19T01:51:07.613Z,100002.50
2023-09-19T01:53:45.095Z,99996.72
2023-09-19T01:56:26.791Z,100013.47
2023-09-19T01:59:00.530Z,100010.41
2023-09-19T02:01:32.314Z,100010.25
2023-09-19T02:04:14.466Z,100005.56
2023-09-19T02:06:45.273Z,100014.53
2023-09-19T02:09:22.526Z,100004.16
2023-09-19T02:11:53.538Z,100014.16
2023-09-19T02:14:24.247Z,100016.97
2023-09-19T02:16:55.151Z,100036.97
2023-09-19T02:19:31.236Z,100029.47
2023-09-19T02:22:08.764Z,100031.63
2023-09-19T02:24:49.328Z,100032.44
2023-09-19T02:27:20.443Z,100033.81
2023-09-19T02:29:51.182Z,100041.72
2023-09-19T02:32:22.694Z,100044.69
2023-09-19T02:34:59.219Z,100055.22
2023-09-19T02:37:30.524Z,100059.75
2023-09-19T02:40:20.534Z,100050.06
2023-09-19T02:42:52.918Z,100043.41
2023-09-19T02:45:24.903Z,100056.03
2023-09-19T02:47:56.364Z,100051.53
2023-09-19T02:50:30.216Z,100027.91
2023-09-19T02:53:01.335Z,100049.16
2023-09-19T02:55:34.607Z,100031.97
2023-09-19T02:58:09.064Z,100045.50
2023-09-19T03:00:40.370Z,100044.66
2023-09-19T03:03:11.647Z,100044.53
2023-09-19T03:05:48.586Z,100032.31
2023-09-19T03:08:24.730Z,100044.56
2023-09-19T03:11:00.362Z,100059.81
2023-09-19T03:13:34.752Z,100051.72
2023-09-19T03:16:07.208Z,100062.34
2023-09-19T03:18:39.338Z,100059.50
2023-09-19T03:21:31.059Z,100066.88
2023-09-19T03:24:09.296Z,100077.53
2023-09-19T03:26:40.290Z,100072.06
2023-09-19T03:29:12.533Z,100078.50
2023-09-19T03:31:44.190Z,100082.41
2023-09-19T03:34:15.188Z,100055.00
2023-09-19T03:37:16.041Z,100091.28
2023-09-19T03:39:48.366Z,100091.13
2023-09-19T03:42:28.010Z,100084.56
2023-09-19T03:45:02.247Z,100099.31
2023-09-19T03:47:32.990Z,100073.75
2023-09-19T03:50:12.529Z,100099.88
2023-09-19T03:52:46.700Z,100099.41
2023-09-19T03:55:17.581Z,100106.75
2023-09-19T03:58:00.203Z,100103.22
2023-09-19T04:00:33.647Z,100091.88
2023-09-19T04:03:07.656Z,100070.69
2023-09-19T04:05:38.730Z,100089.94
2023-09-19T04:08:13.052Z,100091.91
2023-09-19T04:10:48.910Z,100097.47
2023-09-19T04:13:31.257Z,100100.69
2023-09-19T04:16:05.096Z,100096.97
2023-09-19T04:18:39.610Z,100106.03
2023-09-19T04:21:11.111Z,100110.03
2023-09-19T04:23:44.401Z,100108.88
2023-09-19T04:26:18.183Z,100115.34
2023-09-19T04:28:54.974Z,100109.28
2023-09-19T04:31:33.269Z,100114.94
2023-09-19T04:34:06.565Z,100118.13
2023-09-19T04:36:40.061Z,100112.97
2023-09-19T04:39:18.005Z,100124.75
2023-09-19T04:41:49.399Z,100121.34
2023-09-19T04:44:24.089Z,100133.19
2023-09-19T04:46:55.250Z,100139.09
2023-09-19T04:49:26.066Z,100143.31
2023-09-19T04:51:56.942Z,100160.13
2023-09-19T04:54:32.310Z,100148.91
2023-09-19T04:57:03.389Z,100147.63
2023-09-19T04:59:34.156Z,100152.84
2023-09-19T05:02:05.965Z,100147.19
2023-09-19T05:04:37.034Z,100150.00
2023-09-19T05:07:08.006Z,100146.97
2023-09-19T05:09:43.584Z,100149.13
2023-09-19T05:12:19.716Z,100140.53
2023-09-19T05:14:54.213Z,100149.69
2023-09-19T05:17:26.374Z,100143.25
2023-09-19T05:19:59.907Z,100136.63
2023-09-19T05:22:32.971Z,100152.53
2023-09-19T05:25:08.401Z,100160.44
2023-09-19T05:27:40.231Z,100167.56
2023-09-19T05:30:15.588Z,100128.59
2023-09-19T05:32:49.213Z,100171.03
2023-09-19T05:35:24.458Z,100168.81
2023-09-19T05:37:56.580Z,100178.88
2023-09-19T05:40:49.701Z,100178.78
2023-09-19T05:43:20.484Z,100180.44
2023-09-19T05:45:53.938Z,100182.88
2023-09-19T05:48:26.884Z,100192.41
2023-09-19T05:50:59.250Z,100175.31
2023-09-19T05:53:31.374Z,100217.03
2023-09-19T05:56:04.646Z,100225.72
2023-09-19T05:58:35.253Z,100237.84
2023-09-19T06:01:05.884Z,100218.75
2023-09-19T06:03:39.265Z,100248.16
2023-09-19T06:06:17.912Z,100247.41
2023-09-19T06:08:48.785Z,100230.22
2023-09-19T06:11:24.681Z,100240.78
2023-09-19T06:14:01.571Z,100250.44
2023-09-19T06:16:33.569Z,100255.53
2023-09-19T06:19:04.410Z,100252.69
2023-09-19T06:21:35.757Z,100251.47
2023-09-19T06:24:06.969Z,100252.22
2023-09-19T06:26:40.218Z,100253.69
2023-09-19T06:29:11.698Z,100250.47
2023-09-19T06:31:43.577Z,100245.41
2023-09-19T06:34:16.657Z,100240.22
2023-09-19T06:36:52.012Z,100231.91
2023-09-19T06:39:24.230Z,100230.91
2023-09-19T06:41:57.653Z,100229.59
2023-09-19T06:44:30.955Z,100241.50
2023-09-19T06:47:28.784Z,100237.41
2023-09-19T06:50:08.330Z,100230.56
2023-09-19T06:52:39.293Z,100239.25
2023-09-19T06:55:11.229Z,100234.38
2023-09-19T06:57:45.434Z,100238.78
2023-09-19T07:00:33.243Z,100257.72
2023-09-19T07:03:09.855Z,100262.03
2023-09-19T07:05:41.813Z,100265.56
2023-09-19T07:08:16.457Z,100269.66
2023-09-19T07:10:50.164Z,100273.38
2023-09-19T07:13:31.214Z,100255.59
2023-09-19T07:16:02.897Z,100267.53
2023-09-19T07:18:48.982Z,100264.28
2023-09-19T07:21:21.476Z,100254.34
2023-09-19T07:23:53.498Z,100276.41
2023-09-19T07:26:27.326Z,100270.66
2023-09-19T07:29:01.227Z,100269.09
2023-09-19T07:31:32.317Z,100283.00
2023-09-19T07:34:05.128Z,100280.78
2023-09-19T07:36:39.286Z,100281.75
2023-09-19T07:39:22.387Z,100288.97
2023-09-19T07:41:55.406Z,100292.69
2023-09-19T07:44:28.967Z,100287.91
2023-09-19T07:47:04.585Z,100300.03
2023-09-19T07:49:36.240Z,100297.88
2023-09-19T07:52:16.976Z,100294.06
2023-09-19T07:54:51.412Z,100314.47
2023-09-19T07:57:30.230Z,100297.47
2023-09-19T08:00:06.050Z,100299.44
2023-09-19T08:02:46.328Z,100304.91
2023-09-19T08:05:25.476Z,100299.50
2023-09-19T08:07:58.004Z,100269.50
2023-09-19T08:10:36.634Z,100302.91
2023-09-19T08:13:12.606Z,100297.63
2023-09-19T08:15:50.061Z,100293.88
2023-09-19T08:18:33.516Z,100307.88
2023-09-19T08:21:06.500Z,100296.69
2023-09-19T08:23:38.374Z,100300.34
2023-09-19T08:26:10.635Z,100305.81
2023-09-19T08:28:42.418Z,100300.13
2023-09-19T08:31:15.749Z,100296.78
2023-09-19T08:33:51.424Z,100293.47
2023-09-19T08:36:22.317Z,100310.47
2023-09-19T08:38:53.576Z,100311.41
2023-09-19T08:41:24.261Z,100306.88
2023-09-19T08:43:57.469Z,100306.00
2023-09-19T08:46:34.374Z,100303.75
2023-09-19T08:49:08.288Z,100317.31
2023-09-19T08:51:51.639Z,100293.34
2023-09-19T08:54:30.704Z,100296.56
2023-09-19T08:57:04.765Z,100311.69
2023-09-19T08:59:44.808Z,100313.06
2023-09-19T09:02:20.386Z,100314.75
2023-09-19T09:04:53.749Z,100317.31
2023-09-19T09:07:29.879Z,100334.41
2023-09-19T09:10:01.127Z,100320.47
2023-09-19T09:12:37.729Z,100320.03
2023-09-19T09:15:14.025Z,100325.25
2023-09-19T09:17:56.983Z,100333.03
2023-09-19T09:20:27.612Z,100302.56
2023-09-19T09:23:01.833Z,100325.03
2023-09-19T09:25:56.374Z,100330.13
2023-09-19T09:28:40.406Z,100327.66
2023-09-19T09:31:29.309Z,100311.84
2023-09-19T09:34:03.014Z,100325.94
2023-09-19T09:36:42.922Z,100343.69
2023-09-19T09:39:30.498Z,100318.75
2023-09-19T09:42:01.369Z,100342.13
2023-09-19T09:44:33.632Z,100329.50
2023-09-19T09:47:18.929Z,100327.00
2023-09-19T09:50:08.848Z,100341.22
2023-09-19T09:52:50.885Z,100331.34
2023-09-19T09:55:21.773Z,100339.66
2023-09-19T09:58:18.287Z,100344.53
2023-09-19T10:01:10.099Z,100337.03
2023-09-19T10:03:49.627Z,100330.66
2023-09-19T10:06:32.338Z,100332.41
2023-09-19T10:09:25.678Z,100332.09
2023-09-19T10:12:10.068Z,100330.81
2023-09-19T10:14:43.128Z,100338.28
2023-09-19T10:17:21.516Z,100341.34
2023-09-19T10:19:59.413Z,100300.84
2023-09-19T10:22:33.835Z,100331.66
2023-09-19T10:25:11.903Z,100338.78
2023-09-19T10:27:49.095Z,100320.31
2023-09-19T10:30:26.428Z,100330.16
2023-09-19T10:33:03.770Z,100341.16
2023-09-19T10:35:36.270Z,100318.56
2023-09-19T10:38:19.251Z,100335.81
2023-09-19T10:40:54.428Z,100335.50
2023-09-19T10:43:31.444Z,100333.78
2023-09-19T10:46:08.494Z,100329.91
2023-09-19T10:48:41.814Z,100324.94
2023-09-19T10:51:20.497Z,100318.16
2023-09-19T10:53:57.736Z,100314.00
2023-09-19T10:56:34.014Z,100353.28
2023-09-19T10:59:12.446Z,100338.84
2023-09-19T11:01:58.664Z,100324.59
2023-09-19T11:04:31.908Z,100340.75
2023-09-19T11:07:16.302Z,100342.69
2023-09-19T11:09:49.443Z,100338.38
2023-09-19T11:12:53.476Z,100333.72
2023-09-19T11:16:08.527Z,100338.50
2023-09-19T11:19:02.551Z,100335.69
2023-09-19T11:21:55.994Z,100314.38
2023-09-19T11:24:37.591Z,100322.34
2023-09-19T11:27:19.805Z,100329.78
2023-09-19T11:29:51.356Z,100326.19
2023-09-19T11:32:57.037Z,100324.13
2023-09-19T11:36:03.235Z,100315.06
2023-09-19T11:39:14.245Z,100325.75
2023-09-19T11:41:45.771Z,100328.22
2023-09-19T11:44:42.298Z,100322.19
2023-09-19T11:47:16.446Z,100314.38
2023-09-19T11:49:50.253Z,100327.59
2023-09-19T11:52:26.522Z,100318.88
2023-09-19T11:55:01.076Z,100330.44
2023-09-19T11:57:38.816Z,100321.56
2023-09-19T12:00:22.481Z,100327.13
2023-09-19T12:02:59.310Z,100321.38
2023-09-19T12:05:34.973Z,100323.88
2023-09-19T12:08:10.512Z,100320.41
2023-09-19T12:10:52.526Z,100317.53
2023-09-19T12:13:33.043Z,100317.97
2023-09-19T12:16:16.404Z,100324.19
2023-09-19T12:18:49.354Z,100319.59
2023-09-19T12:21:37.917Z,100321.84
2023-09-19T12:24:20.683Z,100321.06
2023-09-19T12:26:53.421Z,100323.91
2023-09-19T12:29:25.654Z,100321.19
2023-09-19T12:32:04.806Z,100328.41
2023-09-19T12:34:44.847Z,100325.03
2023-09-19T12:37:22.225Z,100306.75
2023-09-19T12:39:56.248Z,100319.06
2023-09-19T12:42:38.509Z,100327.06
2023-09-19T12:45:14.810Z,100320.78
2023-09-19T12:48:30.923Z,100315.59
2023-09-19T12:51:17.578Z,100302.69
2023-09-19T12:53:52.032Z,100319.78
2023-09-19T12:56:24.805Z,100318.41
2023-09-19T12:59:02.253Z,100312.16
2023-09-19T13:01:41.580Z,100307.97
2023-09-19T13:04:57.447Z,100306.66
2023-09-19T13:07:50.993Z,100300.25
2023-09-19T13:10:25.570Z,100290.38
2023-09-19T13:12:57.373Z,100293.78
2023-09-19T13:15:31.464Z,100288.84
2023-09-19T13:18:17.317Z,100279.31
2023-09-19T13:21:11.935Z,100243.13
2023-09-19T13:23:46.186Z,100288.66
2023-09-19T13:26:17.616Z,100283.84
2023-09-19T13:28:49.359Z,100268.38
2023-09-19T13:31:20.465Z,100278.00
2023-09-19T13:33:53.501Z,100267.25
2023-09-19T13:36:28.198Z,100274.50
2023-09-19T13:38:58.969Z,100270.13
2023-09-19T13:41:33.788Z,100272.47
2023-09-19T13:44:08.236Z,100266.47
2023-09-19T13:46:39.891Z,100261.66
2023-09-19T13:49:11.043Z,100262.53
2023-09-19T13:51:47.906Z,100260.31
2023-09-19T13:54:20.404Z,100248.31
2023-09-19T13:56:52.425Z,100243.00
2023-09-19T13:59:24.790Z,100258.28
2023-09-19T14:01:55.623Z,100251.13
2023-09-19T14:04:26.457Z,100253.94
2023-09-19T14:07:05.141Z,100252.47
2023-09-19T14:09:39.156Z,100252.78
2023-09-19T14:12:11.115Z,100247.31
2023-09-19T14:14:44.042Z,100251.84
2023-09-19T14:17:19.292Z,100242.25
2023-09-19T14:19:55.982Z,100257.25
2023-09-19T14:22:29.666Z,100262.22
2023-09-19T14:25:00.853Z,100248.28
2023-09-19T14:27:32.739Z,100250.00
2023-09-19T14:30:03.706Z,100246.28
2023-09-19T14:32:34.545Z,100253.88
2023-09-19T14:35:05.346Z,100260.03
2023-09-19T14:37:39.658Z,100240.88
2023-09-19T14:40:13.532Z,100240.75
2023-09-19T14:42:45.133Z,100222.44
2023-09-19T14:45:18.086Z,100226.84
2023-09-19T14:47:54.060Z,100235.47
2023-09-19T14:50:25.187Z,100208.16
2023-09-19T14:53:03.063Z,100230.16
2023-09-19T14:55:36.613Z,100249.47
2023-09-19T14:58:07.706Z,100223.19
2023-09-19T15:00:40.941Z,100234.91
2023-09-19T15:03:13.108Z,100246.78
2023-09-19T15:05:45.493Z,100224.81
2023-09-19T15:08:19.240Z,100237.25
2023-09-19T15:10:55.019Z,100217.50
2023-09-19T15:13:30.338Z,100229.34
2023-09-19T15:16:04.798Z,100236.94
2023-09-19T15:18:40.762Z,100238.47
2023-09-19T15:21:14.907Z,100213.81
2023-09-19T15:23:52.187Z,100225.91
2023-09-19T15:26:35.623Z,100228.38
2023-09-19T15:29:09.553Z,100218.50
2023-09-19T15:31:40.505Z,100224.72
2023-09-19T15:34:11.570Z,100226.59
2023-09-19T15:36:46.258Z,100212.50
2023-09-19T15:39:19.934Z,100215.44
2023-09-19T15:41:52.474Z,100227.44
2023-09-19T15:44:25.177Z,100212.59
2023-09-19T15:46:56.861Z,100218.00
2023-09-19T15:49:37.221Z,100219.41
2023-09-19T15:52:09.782Z,100218.09
2023-09-19T15:54:46.035Z,100232.97
2023-09-19T15:57:21.142Z,100227.50
2023-09-19T15:59:54.304Z,100235.03
2023-09-19T16:02:26.742Z,100237.72
2023-09-19T16:04:58.791Z,100243.06
2023-09-19T16:07:30.264Z,100238.84
2023-09-19T16:10:03.669Z,100235.09
2023-09-19T16:12:34.600Z,100237.34
2023-09-19T16:15:05.537Z,100236.41
2023-09-19T16:17:38.030Z,100244.66
2023-09-19T16:20:13.679Z,100242.66
2023-09-19T16:22:44.511Z,100245.16
2023-09-19T16:25:17.997Z,100249.13
2023-09-19T16:27:48.936Z,100242.06
2023-09-19T16:30:25.610Z,100252.41
2023-09-19T16:32:56.968Z,100248.97
2023-09-19T16:35:29.788Z,100249.72
2023-09-19T16:38:00.407Z,100242.63
2023-09-19T16:40:34.159Z,100239.19
2023-09-19T16:43:13.566Z,100243.16
2023-09-19T16:45:44.221Z,100226.28
2023-09-19T16:48:26.934Z,100206.25
2023-09-19T16:50:59.320Z,100242.50
2023-09-19T16:53:36.217Z,100234.50
2023-09-19T16:56:11.003Z,100214.91
2023-09-19T16:58:42.569Z,100237.94
2023-09-19T17:01:17.721Z,100189.09
2023-09-19T17:03:49.707Z,100242.19
2023-09-19T17:06:28.987Z,100223.81
2023-09-19T17:08:59.617Z,100239.69
2023-09-19T17:11:35.408Z,100235.91
2023-09-19T17:14:06.460Z,100226.09
2023-09-19T17:16:38.617Z,100236.28
2023-09-19T17:19:13.647Z,100236.22
2023-09-19T17:21:44.366Z,100230.63
2023-09-19T17:24:16.053Z,100236.78
2023-09-19T17:26:49.341Z,100205.88
2023-09-19T17:29:20.632Z,100236.63
2023-09-19T17:31:51.456Z,100246.81
2023-09-19T17:34:24.181Z,100241.63
2023-09-19T17:36:55.637Z,100247.59
2023-09-19T17:39:29.508Z,100245.94
2023-09-19T17:42:03.143Z,100249.38
2023-09-19T17:44:36.031Z,100250.97
2023-09-19T17:47:13.744Z,100248.41
2023-09-19T17:49:45.334Z,100239.00
2023-09-19T17:52:17.209Z,100231.25
2023-09-19T17:54:50.128Z,100233.97
2023-09-19T17:57:24.475Z,100239.25
2023-09-19T17:59:57.662Z,100245.13
2023-09-19T18:02:30.864Z,100241.72
2023-09-19T18:05:09.498Z,100240.84
2023-09-19T18:07:52.979Z,100246.00
2023-09-19T18:10:24.174Z,100247.69
2023-09-19T18:12:57.522Z,100246.91
2023-09-19T18:15:34.621Z,100246.00
2023-09-19T18:18:05.378Z,100233.88
2023-09-19T18:20:39.359Z,100224.94
2023-09-19T18:23:18.927Z,100250.09
2023-09-19T18:25:49.873Z,100243.31
2023-09-19T18:28:23.190Z,100220.06
2023-09-19T18:30:53.826Z,100245.69
2023-09-19T18:33:28.481Z,100252.38
2023-09-19T18:36:08.035Z,100243.59
2023-09-19T18:38:42.115Z,100257.31
2023-09-19T18:41:13.684Z,100259.06
2023-09-19T18:43:47.314Z,100255.53
2023-09-19T18:46:19.888Z,100259.53
2023-09-19T18:48:50.654Z,100261.19
2023-09-19T18:51:21.333Z,100254.44
2023-09-19T18:54:09.327Z,100264.72
2023-09-19T18:56:47.796Z,100253.59
2023-09-19T18:59:24.281Z,100250.34
2023-09-19T19:01:55.271Z,100253.31
2023-09-19T19:04:28.430Z,100256.59
2023-09-19T19:06:59.246Z,100259.84
2023-09-19T19:09:30.569Z,100257.91
2023-09-19T19:12:01.339Z,100257.69
2023-09-19T19:14:34.574Z,100256.72
2023-09-19T19:17:05.934Z,100265.94
2023-09-19T19:19:37.134Z,100266.03
2023-09-19T19:22:07.992Z,100245.44
2023-09-19T19:24:38.617Z,100255.22
2023-09-19T19:27:09.508Z,100264.59
2023-09-19T19:29:43.106Z,100256.94
2023-09-19T19:32:17.007Z,100252.66
2023-09-19T19:34:48.776Z,100261.97
2023-09-19T19:37:19.322Z,100254.94
2023-09-19T19:39:49.963Z,100265.22
2023-09-19T19:42:20.472Z,100260.13
2023-09-19T19:44:55.370Z,100248.78
2023-09-19T19:47:26.130Z,100256.59
2023-09-19T19:50:00.274Z,100247.06
2023-09-19T19:52:34.120Z,100243.25
2023-09-19T19:55:04.854Z,100261.63
2023-09-19T19:57:36.423Z,100264.78
2023-09-19T20:00:12.671Z,100260.31
2023-09-19T20:02:43.414Z,100259.13
2023-09-19T20:05:14.154Z,100265.91
2023-09-19T20:07:46.349Z,100264.06
2023-09-19T20:10:20.907Z,100272.50
2023-09-19T20:12:53.408Z,100266.50
2023-09-19T20:15:27.948Z,100270.75
2023-09-19T20:18:01.051Z,100269.06
2023-09-19T20:20:33.995Z,100269.88
2023-09-19T20:23:05.366Z,100268.13
2023-09-19T20:25:38.113Z,100269.94
2023-09-19T20:28:09.968Z,100272.50
2023-09-19T20:30:46.127Z,100272.56
2023-09-19T20:33:17.371Z,100263.19
2023-09-19T20:35:48.110Z,100264.22
2023-09-19T20:38:18.778Z,100256.81
2023-09-19T20:40:49.482Z,100259.53
2023-09-19T20:43:20.142Z,100253.47
2023-09-19T20:45:54.116Z,100263.72
2023-09-19T20:48:26.985Z,100263.56
2023-09-19T20:50:57.813Z,100253.53
2023-09-19T20:53:28.678Z,100252.03
2023-09-19T20:56:04.212Z,100247.56
2023-09-19T20:58:35.207Z,100254.06
2023-09-19T21:01:10.081Z,100251.63
2023-09-19T21:03:41.769Z,100254.25
2023-09-19T21:06:14.839Z,100246.50
2023-09-19T21:08:46.316Z,100251.50
2023-09-19T21:11:19.044Z,100241.06
2023-09-19T21:13:52.755Z,100243.44
2023-09-19T21:16:26.453Z,100238.16
2023-09-19T21:18:57.331Z,100243.97
2023-09-19T21:21:32.343Z,100239.56
2023-09-19T21:24:04.203Z,100246.22
2023-09-19T21:26:35.723Z,100241.91
2023-09-19T21:29:09.409Z,100243.50
2023-09-19T21:31:43.825Z,100250.16
2023-09-19T21:34:14.641Z,100245.81
2023-09-19T21:36:46.171Z,100257.56
2023-09-19T21:39:19.380Z,100248.00
2023-09-19T21:41:59.068Z,100219.09
2023-09-19T21:44:29.835Z,100240.06
2023-09-19T21:47:04.236Z,100237.38
2023-09-19T21:49:35.818Z,100238.34
2023-09-19T21:52:08.249Z,100245.25
2023-09-19T21:54:40.427Z,100237.59
2023-09-19T21:57:12.899Z,100243.66
2023-09-19T21:59:46.150Z,100242.91
2023-09-19T22:02:20.894Z,100248.06
2023-09-19T22:04:53.301Z,100242.97
2023-09-19T22:07:26.884Z,100244.75
2023-09-19T22:09:57.514Z,100235.34
2023-09-19T22:12:41.394Z,100242.97
2023-09-19T22:15:13.834Z,100238.84
2023-09-19T22:17:48.015Z,100254.41
2023-09-19T22:20:27.249Z,100242.28
2023-09-19T22:23:00.705Z,100245.69
2023-09-19T22:25:44.331Z,100238.84
2023-09-19T22:28:18.328Z,100244.09
2023-09-19T22:30:52.375Z,100236.47
2023-09-19T22:33:28.375Z,100233.47
2023-09-19T22:36:05.496Z,100250.00
2023-09-19T22:38:38.693Z,100233.75
2023-09-19T22:41:11.866Z,100243.13
2023-09-19T22:43:52.380Z,100239.81
2023-09-19T22:46:24.213Z,100236.22
2023-09-19T22:49:02.081Z,100244.09
2023-09-19T22:51:43.040Z,100254.31
2023-09-19T22:54:18.714Z,100254.13
2023-09-19T22:56:52.746Z,100249.66
2023-09-19T22:59:26.538Z,100247.91
2023-09-19T23:01:59.282Z,100247.72
2023-09-19T23:04:35.462Z,100259.75
2023-09-19T23:07:06.843Z,100246.13
2023-09-19T23:09:38.067Z,100257.50
2023-09-19T23:12:12.590Z,100259.94
2023-09-19T23:14:43.497Z,100253.16
2023-09-19T23:17:16.740Z,100251.50
2023-09-19T23:19:51.049Z,100264.41
2023-09-19T23:22:25.251Z,100260.19
2023-09-19T23:25:14.170Z,100259.50
2023-09-19T23:27:48.600Z,100251.59
2023-09-19T23:30:24.010Z,100251.75
2023-09-19T23:32:54.682Z,100257.66
2023-09-19T23:35:28.842Z,100253.25
2023-09-19T23:38:00.754Z,100256.53
2023-09-19T23:40:31.986Z,100253.97
2023-09-19T23:43:02.781Z,100256.31
2023-09-19T23:45:41.016Z,100255.56
2023-09-19T23:48:12.926Z,100248.94
2023-09-19T23:51:04.036Z,100261.25
2023-09-19T23:53:34.784Z,100257.75
2023-09-19T23:56:06.631Z,100254.84
2023-09-19T23:58:44.612Z,100272.13
